createdAt,value
2022-12-25T00:02:20.574Z,23.77
2022-12-25T00:04:47.167Z,23.10
2022-12-25T00:07:13.851Z,24.53
2022-12-25T00:09:40.390Z,23.60
2022-12-25T00:12:07.022Z,24.30
2022-12-25T00:14:33.862Z,22.77
2022-12-25T00:17:00.503Z,24.63
2022-12-25T00:19:27.079Z,24.40
2022-12-25T00:21:53.698Z,23.80
2022-12-25T00:24:20.242Z,25.40
2022-12-25T00:26:46.779Z,24.37
2022-12-25T00:29:14.083Z,22.03
2022-12-25T00:31:41.775Z,23.10
2022-12-25T00:34:08.533Z,22.03
2022-12-25T00:36:41.473Z,22.17
2022-12-25T00:39:08.685Z,24.13
2022-12-25T00:42:01.764Z,22.97
2022-12-25T00:44:28.547Z,23.37
2022-12-25T00:46:55.247Z,22.70
2022-12-25T00:49:23.809Z,23.37
2022-12-25T00:51:50.995Z,23.53
2022-12-25T00:54:17.882Z,23.37
2022-12-25T00:56:44.880Z,25.43
2022-12-25T00:59:12.227Z,26.70
2022-12-25T01:01:39.552Z,25.43
2022-12-25T01:04:06.675Z,23.83
2022-12-25T01:06:33.488Z,22.63
2022-12-25T01:09:18.790Z,22.40
2022-12-25T01:11:46.052Z,22.47
2022-12-25T01:14:13.205Z,22.10
2022-12-25T01:16:40.183Z,21.97
2022-12-25T01:19:06.841Z,22.57
2022-12-25T01:21:33.900Z,23.23
2022-12-25T01:24:00.604Z,22.27
2022-12-25T01:26:28.062Z,24.77
2022-12-25T01:28:54.989Z,24.43
2022-12-25T01:31:24.154Z,26.03
2022-12-25T01:33:51.020Z,25.40
2022-12-25T01:36:22.462Z,25.23
2022-12-25T01:38:49.710Z,24.83
2022-12-25T01:41:19.523Z,25.33
2022-12-25T01:44:15.447Z,26.02
2022-12-25T01:46:45.302Z,21.20
2022-12-25T01:49:16.705Z,20.05
2022-12-25T01:51:48.204Z,23.57
2022-12-25T01:54:20.422Z,23.13
2022-12-25T01:56:49.559Z,21.17
2022-12-25T01:59:19.637Z,19.53
2022-12-25T02:01:46.897Z,18.83
2022-12-25T02:04:22.277Z,20.00
2022-12-25T02:06:51.633Z,20.30
2022-12-25T02:09:19.023Z,20.50
2022-12-25T02:11:59.171Z,19.50
2022-12-25T02:14:29.904Z,19.63
2022-12-25T02:17:02.055Z,18.70
2022-12-25T02:19:52.846Z,17.73
2022-12-25T02:22:54.866Z,18.10
2022-12-25T02:25:36.511Z,18.80
2022-12-25T02:28:15.529Z,20.73
2022-12-25T02:31:10.529Z,20.27
2022-12-25T02:34:05.828Z,21.10
2022-12-25T02:36:44.479Z,20.93
2022-12-25T02:39:48.824Z,19.73
2022-12-25T02:42:57.754Z,19.00
2022-12-25T02:46:02.428Z,20.23
2022-12-25T02:48:52.668Z,17.93
2022-12-25T02:51:41.981Z,19.52
2022-12-25T02:54:33.164Z,20.10
2022-12-25T02:57:22.659Z,18.90
2022-12-25T03:00:09.221Z,17.88
2022-12-25T03:02:55.854Z,23.77
2022-12-25T03:05:44.992Z,28.63
2022-12-25T03:08:16.694Z,24.40
2022-12-25T03:11:09.126Z,19.53
2022-12-25T03:13:40.084Z,17.47
2022-12-25T03:16:26.162Z,16.83
2022-12-25T03:18:55.980Z,14.90
2022-12-25T03:21:41.101Z,16.80
2022-12-25T03:24:26.663Z,17.17
2022-12-25T03:26:56.178Z,20.20
2022-12-25T03:29:48.165Z,18.27
2022-12-25T03:32:42.879Z,19.17
2022-12-25T03:35:25.492Z,15.97
2022-12-25T03:38:45.302Z,16.30
2022-12-25T03:41:40.801Z,15.77
2022-12-25T03:45:23.833Z,16.37
2022-12-25T03:47:53.779Z,15.70
2022-12-25T03:50:57.268Z,15.50
2022-12-25T03:53:50.811Z,13.90
2022-12-25T03:56:37.031Z,15.43
2022-12-25T03:59:24.188Z,16.13
2022-12-25T04:02:10.615Z,15.67
2022-12-25T04:04:56.421Z,15.37
2022-12-25T04:07:41.285Z,15.80
2022-12-25T04:10:27.338Z,15.27
2022-12-25T04:13:12.495Z,15.80
2022-12-25T04:15:57.952Z,15.70
2022-12-25T04:18:43.132Z,15.90
2022-12-25T04:21:28.630Z,15.77
2022-12-25T04:24:33.873Z,15.33
2022-12-25T04:27:19.043Z,16.43
2022-12-25T04:30:04.633Z,15.27
2022-12-25T04:32:50.226Z,15.57
2022-12-25T04:35:35.618Z,15.70
2022-12-25T04:38:02.216Z,15.43
2022-12-25T04:40:28.864Z,14.80
2022-12-25T04:42:55.581Z,14.73
2022-12-25T04:45:22.276Z,15.73
2022-12-25T04:47:48.860Z,15.63
2022-12-25T04:50:15.519Z,14.90
2022-12-25T04:52:42.315Z,14.87
2022-12-25T04:55:10.710Z,14.47
2022-12-25T04:57:37.542Z,13.53
2022-12-25T05:00:05.635Z,13.93
2022-12-25T05:02:32.912Z,14.13
2022-12-25T05:04:59.687Z,13.17
2022-12-25T05:07:26.332Z,13.40
2022-12-25T05:09:53.005Z,12.90
2022-12-25T05:12:19.591Z,13.23
2022-12-25T05:14:46.902Z,13.97
2022-12-25T05:17:13.674Z,14.10
2022-12-25T05:19:40.301Z,13.20
2022-12-25T05:22:06.905Z,14.03
2022-12-25T05:24:33.595Z,12.97
2022-12-25T05:27:00.300Z,12.57
2022-12-25T05:29:26.929Z,13.67
2022-12-25T05:31:53.444Z,13.43
2022-12-25T05:34:20.006Z,12.83
2022-12-25T05:36:46.660Z,14.43
2022-12-25T05:39:13.277Z,14.07
2022-12-25T05:41:40.604Z,15.40
2022-12-25T05:44:07.218Z,16.27
2022-12-25T05:46:33.862Z,15.90
2022-12-25T05:49:00.572Z,13.43
2022-12-25T05:51:27.295Z,13.47
2022-12-25T05:53:53.889Z,12.93
2022-12-25T05:56:20.568Z,13.40
2022-12-25T05:58:47.184Z,13.20
2022-12-25T06:01:19.333Z,13.67
2022-12-25T06:03:46.103Z,12.97
2022-12-25T06:06:13.618Z,15.17
2022-12-25T06:08:40.452Z,16.03
2022-12-25T06:11:08.462Z,13.70
2022-12-25T06:13:35.728Z,12.67
2022-12-25T06:16:07.437Z,14.60
2022-12-25T06:18:39.150Z,14.03
2022-12-25T06:21:10.890Z,13.17
2022-12-25T06:23:39.028Z,15.60
2022-12-25T06:26:08.296Z,15.53
2022-12-25T06:28:35.069Z,13.33
2022-12-25T06:31:14.769Z,12.70
2022-12-25T06:33:42.319Z,12.25
2022-12-25T06:36:14.313Z,13.70
2022-12-25T06:38:41.804Z,13.30
2022-12-25T06:41:10.963Z,13.40
2022-12-25T06:43:38.221Z,12.60
2022-12-25T06:46:10.321Z,12.47
2022-12-25T06:48:38.663Z,12.87
2022-12-25T06:51:06.779Z,13.10
2022-12-25T06:53:40.177Z,12.50
2022-12-25T06:56:15.338Z,12.70
2022-12-25T06:58:47.454Z,13.73
2022-12-25T07:01:36.016Z,14.20
2022-12-25T07:04:15.732Z,12.97
2022-12-25T07:06:42.400Z,13.77
2022-12-25T07:09:09.025Z,13.13
2022-12-25T07:11:36.277Z,12.67
2022-12-25T07:14:03.216Z,13.20
2022-12-25T07:16:29.953Z,13.80
2022-12-25T07:18:58.915Z,12.77
2022-12-25T07:21:25.616Z,13.73
2022-12-25T07:23:52.198Z,13.27
2022-12-25T07:26:19.316Z,13.67
2022-12-25T07:28:45.847Z,14.70
2022-12-25T07:31:17.422Z,14.73
2022-12-25T07:33:44.972Z,17.00
2022-12-25T07:36:12.838Z,16.33
2022-12-25T07:38:43.301Z,17.87
2022-12-25T07:41:13.146Z,19.20
2022-12-25T07:43:40.589Z,17.13
2022-12-25T07:46:07.843Z,20.47
2022-12-25T07:48:36.425Z,15.37
2022-12-25T07:51:06.063Z,12.77
2022-12-25T07:53:33.627Z,13.05
2022-12-25T07:56:03.366Z,12.03
2022-12-25T07:58:33.701Z,12.45
2022-12-25T08:01:18.261Z,13.07
2022-12-25T08:03:51.000Z,13.73
2022-12-25T08:06:18.413Z,14.93
2022-12-25T08:08:45.038Z,15.73
2022-12-25T08:11:11.862Z,14.27
2022-12-25T08:13:39.225Z,16.17
2022-12-25T08:16:08.685Z,15.83
2022-12-25T08:18:36.383Z,16.45
2022-12-25T08:21:12.697Z,15.37
2022-12-25T08:23:42.281Z,16.87
2022-12-25T08:26:12.362Z,15.13
2022-12-25T08:28:39.413Z,15.13
2022-12-25T08:31:27.752Z,14.67
2022-12-25T08:33:57.042Z,16.30
2022-12-25T08:36:24.560Z,20.42
2022-12-25T08:38:53.458Z,13.70
2022-12-25T08:41:23.205Z,16.67
2022-12-25T08:43:50.210Z,23.63
2022-12-25T08:46:17.083Z,22.93
2022-12-25T08:48:45.609Z,23.07
2022-12-25T08:51:14.849Z,24.03
2022-12-25T08:53:43.236Z,18.25
2022-12-25T08:56:10.481Z,18.20
2022-12-25T08:58:38.111Z,22.60
2022-12-25T09:01:05.675Z,14.70
2022-12-25T09:03:33.461Z,15.47
2022-12-25T09:06:18.311Z,17.10
2022-12-25T09:08:49.256Z,27.90
2022-12-25T09:11:17.479Z,18.43
2022-12-25T09:13:44.108Z,18.10
2022-12-25T09:16:13.853Z,20.27
2022-12-25T09:18:40.919Z,18.15
2022-12-25T09:21:10.613Z,19.57
2022-12-25T09:23:37.674Z,20.63
2022-12-25T09:26:06.975Z,21.43
2022-12-25T09:28:33.930Z,23.83
2022-12-25T09:31:00.925Z,27.33
2022-12-25T09:33:27.636Z,27.07
2022-12-25T09:36:05.959Z,26.80
2022-12-25T09:38:33.660Z,28.67
2022-12-25T09:41:19.352Z,29.00
2022-12-25T09:43:58.480Z,23.83
2022-12-25T09:46:33.198Z,21.08
2022-12-25T09:49:12.495Z,17.93
2022-12-25T09:51:42.328Z,16.83
2022-12-25T09:56:52.334Z,15.87
2022-12-25T09:59:25.022Z,15.93
2022-12-25T10:02:19.620Z,17.07
2022-12-25T10:05:12.965Z,15.40
2022-12-25T10:08:15.394Z,14.80
2022-12-25T10:11:02.908Z,14.60
2022-12-25T10:13:48.203Z,14.77
2022-12-25T10:16:23.933Z,14.57
2022-12-25T10:19:23.031Z,13.83
2022-12-25T10:21:54.820Z,16.05
2022-12-25T10:24:44.287Z,15.50
2022-12-25T10:27:20.191Z,15.30
2022-12-25T10:29:52.412Z,14.50
2022-12-25T10:32:19.077Z,15.53
2022-12-25T10:34:45.844Z,16.47
2022-12-25T10:37:12.768Z,15.97
2022-12-25T10:39:45.988Z,15.27
2022-12-25T10:42:34.581Z,14.23
2022-12-25T10:45:07.951Z,15.17
2022-12-25T10:47:38.282Z,20.57
2022-12-25T10:50:11.943Z,19.63
2022-12-25T10:52:55.405Z,16.07
2022-12-25T10:55:28.126Z,15.03
2022-12-25T10:57:55.667Z,12.83
2022-12-25T11:00:25.376Z,12.17
2022-12-25T11:02:52.252Z,11.85
2022-12-25T11:05:31.395Z,13.77
2022-12-25T11:08:00.763Z,13.32
2022-12-25T11:10:33.203Z,12.13
2022-12-25T11:13:01.217Z,12.13
2022-12-25T11:15:30.794Z,12.13
2022-12-25T11:17:57.353Z,12.82
2022-12-25T11:20:24.531Z,13.23
2022-12-25T11:22:51.863Z,12.13
2022-12-25T11:25:24.031Z,13.10
2022-12-25T11:28:02.562Z,10.30
2022-12-25T11:30:31.022Z,11.50
2022-12-25T11:33:02.630Z,11.47
2022-12-25T11:35:32.698Z,9.60
2022-12-25T11:37:59.378Z,11.17
2022-12-25T11:40:42.937Z,11.30
2022-12-25T11:43:16.095Z,13.67
2022-12-25T11:45:49.123Z,11.57
2022-12-25T11:48:29.612Z,12.70
2022-12-25T11:51:01.317Z,10.30
2022-12-25T11:53:35.142Z,10.20
2022-12-25T11:56:16.095Z,8.20
2022-12-25T11:58:49.463Z,7.23
2022-12-25T12:01:37.403Z,6.83
2022-12-25T12:04:14.880Z,6.90
2022-12-25T12:07:00.930Z,6.57
2022-12-25T12:09:36.634Z,8.13
2022-12-25T12:12:18.523Z,7.90
2022-12-25T12:15:24.358Z,7.03
2022-12-25T12:17:51.048Z,8.43
2022-12-25T12:20:31.212Z,9.90
2022-12-25T12:22:59.236Z,7.60
2022-12-25T12:25:26.977Z,7.37
2022-12-25T12:28:04.794Z,8.23
2022-12-25T12:30:36.381Z,8.40
2022-12-25T12:33:06.364Z,9.57
2022-12-25T12:35:40.505Z,8.77
2022-12-25T12:38:15.031Z,8.30
2022-12-25T12:40:45.191Z,8.40
2022-12-25T12:43:33.374Z,7.97
2022-12-25T12:46:17.985Z,9.17
2022-12-25T12:48:48.657Z,9.43
2022-12-25T12:51:27.283Z,9.53
2022-12-25T12:54:17.302Z,9.90
2022-12-25T12:57:15.335Z,23.17
2022-12-25T12:59:46.884Z,8.80
2022-12-25T13:03:06.425Z,9.00
2022-12-25T13:06:26.488Z,9.65
2022-12-25T13:09:13.273Z,8.90
2022-12-25T13:11:41.663Z,9.90
2022-12-25T13:14:17.891Z,22.77
2022-12-25T13:16:47.150Z,10.63
2022-12-25T13:19:23.018Z,11.40
2022-12-25T13:21:54.236Z,10.13
2022-12-25T13:24:26.188Z,11.13
2022-12-25T13:26:53.151Z,10.33
2022-12-25T13:29:31.008Z,9.40
2022-12-25T13:31:59.678Z,9.43
2022-12-25T13:34:42.452Z,9.77
2022-12-25T13:37:17.876Z,10.80
2022-12-25T13:40:07.221Z,9.37
2022-12-25T13:42:37.779Z,10.75
2022-12-25T13:45:21.743Z,9.43
2022-12-25T13:47:54.677Z,16.53
2022-12-25T13:50:33.330Z,18.50
2022-12-25T13:53:14.134Z,15.90
2022-12-25T13:55:42.391Z,24.57
2022-12-25T13:58:18.616Z,26.87
2022-12-25T14:00:56.792Z,30.10
2022-12-25T14:03:50.004Z,24.17
2022-12-25T14:06:28.691Z,17.30
2022-12-25T14:08:57.143Z,17.27
2022-12-25T14:11:26.384Z,14.93
2022-12-25T14:13:59.922Z,13.80
2022-12-25T14:16:27.323Z,20.27
2022-12-25T14:18:57.703Z,26.20
2022-12-25T14:21:27.907Z,17.00
2022-12-25T14:26:34.258Z,10.27
2022-12-25T14:29:16.524Z,11.23
2022-12-25T14:31:45.905Z,11.83
2022-12-25T14:34:18.644Z,14.80
2022-12-25T14:36:45.954Z,15.93
2022-12-25T14:39:31.996Z,12.47
2022-12-25T14:41:59.322Z,9.07
2022-12-25T14:44:33.824Z,10.13
2022-12-25T14:47:18.814Z,10.57
2022-12-25T14:49:47.002Z,8.83
2022-12-25T14:52:19.375Z,10.40
2022-12-25T14:54:50.064Z,13.07
2022-12-25T14:57:27.408Z,13.47
2022-12-25T15:00:03.866Z,11.33
2022-12-25T15:02:40.675Z,10.97
2022-12-25T15:05:25.049Z,10.10
2022-12-25T15:08:14.861Z,10.87
2022-12-25T15:13:30.051Z,11.60
2022-12-25T15:16:06.198Z,12.00
2022-12-25T15:18:42.724Z,10.50
2022-12-25T15:21:33.063Z,8.93
2022-12-25T15:24:00.235Z,10.68
2022-12-25T15:26:29.836Z,13.83
2022-12-25T15:28:56.894Z,12.10
2022-12-25T15:31:26.429Z,10.90
2022-12-25T15:33:58.220Z,9.73
2022-12-25T15:36:26.061Z,9.30
2022-12-25T15:38:53.429Z,15.27
2022-12-25T15:41:51.360Z,9.57
2022-12-25T15:44:20.704Z,11.37
2022-12-25T15:46:47.832Z,11.50
2022-12-25T15:49:15.410Z,11.13
2022-12-25T15:51:43.064Z,12.67
2022-12-25T15:54:10.925Z,12.23
2022-12-25T15:56:43.248Z,13.33
2022-12-25T15:59:12.024Z,11.93
2022-12-25T16:01:41.478Z,12.63
2022-12-25T16:04:08.142Z,13.00
2022-12-25T16:06:34.672Z,11.30
2022-12-25T16:09:01.268Z,12.40
2022-12-25T16:11:27.925Z,13.60
2022-12-25T16:13:54.661Z,13.30
2022-12-25T16:16:22.840Z,13.17
2022-12-25T16:18:49.586Z,13.23
2022-12-25T16:21:19.544Z,10.10
2022-12-25T16:23:46.163Z,9.45
2022-12-25T16:26:12.875Z,8.67
2022-12-25T16:28:39.401Z,11.03
2022-12-25T16:31:06.169Z,10.83
2022-12-25T16:33:33.061Z,12.30
2022-12-25T16:35:59.663Z,13.93
2022-12-25T16:38:26.596Z,13.60
2022-12-25T16:40:59.072Z,15.50
2022-12-25T16:43:26.076Z,15.53
2022-12-25T16:45:52.826Z,14.17
2022-12-25T16:48:21.859Z,9.60
2022-12-25T16:50:48.615Z,8.60
2022-12-25T16:53:15.235Z,6.93
2022-12-25T16:55:41.881Z,6.27
2022-12-25T16:58:08.499Z,7.20
2022-12-25T17:00:35.230Z,7.50
2022-12-25T17:03:02.075Z,9.30
2022-12-25T17:05:35.009Z,9.23
2022-12-25T17:08:01.647Z,16.87
2022-12-25T17:10:28.499Z,32.20
2022-12-25T17:12:55.180Z,26.07
2022-12-25T17:15:21.772Z,33.17
2022-12-25T17:17:48.393Z,33.77
2022-12-25T17:20:15.114Z,26.50
2022-12-25T17:22:41.659Z,23.33
2022-12-25T17:25:11.117Z,24.33
2022-12-25T17:27:37.801Z,35.70
2022-12-25T17:30:04.866Z,29.67
2022-12-25T17:32:31.504Z,30.03
2022-12-25T17:34:58.259Z,25.43
2022-12-25T17:37:25.231Z,22.80
2022-12-25T17:39:51.843Z,15.63
2022-12-25T17:42:18.574Z,14.70
2022-12-25T17:44:46.207Z,16.73
2022-12-25T17:47:12.858Z,17.43
2022-12-25T17:49:39.494Z,14.20
2022-12-25T17:52:06.177Z,15.77
2022-12-25T17:54:32.983Z,14.03
2022-12-25T17:56:59.605Z,15.63
2022-12-25T17:59:30.069Z,16.33
2022-12-25T18:01:56.902Z,15.57
2022-12-25T18:04:24.471Z,14.90
2022-12-25T18:06:51.306Z,14.47
2022-12-25T18:09:18.995Z,12.93
2022-12-25T18:11:45.940Z,11.63
2022-12-25T18:14:15.066Z,12.33
2022-12-25T18:16:44.835Z,11.60
2022-12-25T18:19:12.853Z,11.48
2022-12-25T18:21:39.733Z,14.53
2022-12-25T18:24:07.930Z,11.27
2022-12-25T18:26:34.827Z,11.67
2022-12-25T18:29:01.490Z,9.80
2022-12-25T18:31:30.450Z,10.13
2022-12-25T18:33:58.205Z,9.17
2022-12-25T18:36:26.653Z,10.40
2022-12-25T18:38:55.749Z,8.17
2022-12-25T18:41:24.060Z,8.30
2022-12-25T18:43:55.251Z,8.43
2022-12-25T18:46:25.582Z,8.10
2022-12-25T18:48:53.954Z,9.80
2022-12-25T18:51:20.523Z,8.33
2022-12-25T18:53:47.254Z,8.83
2022-12-25T18:56:15.886Z,11.13
2022-12-25T18:58:42.961Z,10.60
2022-12-25T19:01:12.150Z,9.97
2022-12-25T19:03:39.382Z,10.00
2022-12-25T19:06:06.555Z,8.80
2022-12-25T19:08:33.191Z,8.53
2022-12-25T19:10:59.937Z,9.57
2022-12-25T19:13:26.493Z,8.93
2022-12-25T19:15:58.227Z,11.03
2022-12-25T19:18:26.109Z,9.00
2022-12-25T19:20:52.757Z,13.33
2022-12-25T19:23:19.470Z,11.73
2022-12-25T19:25:46.198Z,13.37
2022-12-25T19:28:12.844Z,16.77
2022-12-25T19:30:42.367Z,13.30
2022-12-25T19:33:14.083Z,13.53
2022-12-25T19:35:44.301Z,14.90
2022-12-25T19:38:10.944Z,13.33
2022-12-25T19:40:39.491Z,13.53
2022-12-25T19:43:06.252Z,16.87
2022-12-25T19:45:33.360Z,13.67
2022-12-25T19:47:59.996Z,16.43
2022-12-25T19:50:28.657Z,17.50
2022-12-25T19:52:55.800Z,17.57
2022-12-25T19:55:22.839Z,16.40
2022-12-25T19:57:49.717Z,15.10
2022-12-25T20:00:16.864Z,14.80
2022-12-25T20:02:43.768Z,14.47
2022-12-25T20:05:10.668Z,18.60
2022-12-25T20:07:37.304Z,18.17
2022-12-25T20:10:04.043Z,16.83
2022-12-25T20:12:30.752Z,15.67
2022-12-25T20:14:57.521Z,16.97
2022-12-25T20:17:24.345Z,17.67
2022-12-25T20:19:51.063Z,16.23
2022-12-25T20:22:18.081Z,16.63
2022-12-25T20:24:44.973Z,17.07
2022-12-25T20:27:11.713Z,17.17
2022-12-25T20:29:39.237Z,16.33
2022-12-25T20:32:05.957Z,16.67
2022-12-25T20:34:32.652Z,17.97
2022-12-25T20:36:59.234Z,18.07
2022-12-25T20:39:25.891Z,16.20
2022-12-25T20:41:52.528Z,17.47
2022-12-25T20:44:19.722Z,17.90
2022-12-25T20:46:46.323Z,17.40
2022-12-25T20:49:13.398Z,18.67
2022-12-25T20:51:40.383Z,17.80
2022-12-25T20:54:09.522Z,16.10
2022-12-25T20:56:36.675Z,18.20
2022-12-25T20:59:03.267Z,18.00
2022-12-25T21:01:31.541Z,19.23
2022-12-25T21:03:59.201Z,17.77
2022-12-25T21:06:26.615Z,18.40
2022-12-25T21:08:53.517Z,17.47
2022-12-25T21:11:21.430Z,17.53
2022-12-25T21:13:49.118Z,18.47
2022-12-25T21:16:20.194Z,18.63
2022-12-25T21:18:48.376Z,18.10
2022-12-25T21:21:15.391Z,19.00
2022-12-25T21:23:42.320Z,19.30
2022-12-25T21:26:19.643Z,19.60
2022-12-25T21:28:50.683Z,18.20
2022-12-25T21:31:18.484Z,18.90
2022-12-25T21:33:51.552Z,18.47
2022-12-25T21:36:30.632Z,19.53
2022-12-25T21:39:08.502Z,21.20
2022-12-25T21:41:37.407Z,19.80
2022-12-25T21:44:04.412Z,19.40
2022-12-25T21:46:31.549Z,18.07
2022-12-25T21:48:59.120Z,16.10
2022-12-25T21:51:47.957Z,15.10
2022-12-25T21:54:15.991Z,16.47
2022-12-25T21:56:45.785Z,16.87
2022-12-25T21:59:18.507Z,16.98
2022-12-25T22:01:46.010Z,17.27
2022-12-25T22:04:14.187Z,14.70
2022-12-25T22:07:00.210Z,15.00
2022-12-25T22:09:26.885Z,16.70
2022-12-25T22:12:11.840Z,16.13
2022-12-25T22:14:54.356Z,14.73
2022-12-25T22:17:49.013Z,13.93
2022-12-25T22:20:24.766Z,15.17
2022-12-25T22:22:51.993Z,14.30
2022-12-25T22:25:19.488Z,14.43
2022-12-25T22:27:47.583Z,14.27
2022-12-25T22:30:17.397Z,13.80
2022-12-25T22:32:44.837Z,13.80
2022-12-25T22:35:14.939Z,14.00
2022-12-25T22:37:42.746Z,13.88
2022-12-25T22:40:11.607Z,13.90
2022-12-25T22:42:38.303Z,14.37
2022-12-25T22:45:05.470Z,14.37
2022-12-25T22:47:32.539Z,13.60
2022-12-25T22:49:59.274Z,14.40
2022-12-25T22:52:25.868Z,15.00
2022-12-25T22:54:52.509Z,14.20
2022-12-25T22:57:19.381Z,13.70
2022-12-25T22:59:45.980Z,14.60
2022-12-25T23:02:12.712Z,14.27
2022-12-25T23:04:39.401Z,14.40
2022-12-25T23:07:05.991Z,14.40
2022-12-25T23:09:32.964Z,15.10
2022-12-25T23:11:59.570Z,15.07
2022-12-25T23:14:39.303Z,13.23
2022-12-25T23:17:47.100Z,13.07
2022-12-25T23:20:33.566Z,12.27
2022-12-25T23:23:19.775Z,12.97
2022-12-25T23:26:05.188Z,14.67
2022-12-25T23:28:50.340Z,14.30
2022-12-25T23:31:17.258Z,13.17
2022-12-25T23:33:44.042Z,13.40
2022-12-25T23:36:10.821Z,14.37
2022-12-25T23:38:37.379Z,12.30
2022-12-25T23:41:03.992Z,12.07
2022-12-25T23:43:30.696Z,12.87
2022-12-25T23:45:59.744Z,14.50
2022-12-25T23:48:27.945Z,12.93
2022-12-25T23:50:56.131Z,12.50
2022-12-25T23:53:23.704Z,12.60
2022-12-25T23:55:55.580Z,12.87
2022-12-25T23:58:22.389Z,12.40
